Current Weather

Marshalltown Muni

Marshalltown, Iowa (KMIW)

Report from: Wednesday, August 17, 2022 8:53 PM CDT
Current time: Wednesday, August 17, 2022 9:17 PM CDT

Nearby weather
Weather history
Weather forecast

Temperature21.1°C (70.0°F)
Dew point16.1°C (61.0°F)
Winds 4 kts (2.1 m/s, 4.6 mph) East-Southeast (110°)
Visibility10 mi. (16.1 km)
Clouds Few clouds 5,000 ft. (1,524 m)
Altimeter30.10 in.Hg (1019 mB)
Relative humidity73 %
Density altitude760 ft. (232 m)
Sea-level pressure101.9 kPa (1019 mB, 30.08 in.Hg)
Remarks Fully automated report
Automated weather observing station with precipitation discriminator
Flight conditions Visual Meteorological Conditions
Raw dataKMIW 180153Z AUTO 11004KT 10SM FEW050 21/16 A3010 RMK AO2 SLP187 T02110161
An error has occurred. This application may no longer respond until reloaded. Reload 🗙